logo
Search for airport 
image banner adimage banner adimage banner ad
image banner ad

MMMD - Merida Aeropuerto Internacional

Located in Merida, Mexico

ICAO - MMMD, IATA - MID

Data provided by Airmate  

General information

Coordinates: N20°56'13" W89°39'28"
Elevation is 38 feet MSL.
 
Rated:
View ratings:
[VIEW]
View others Airports in Yucatan

Operational data

Special qualification required
Current time UTC:
Current local time:
Weather
METAR: MMMD 152043Z 05004KT 7SM SCT020 BKN300 34/21 A2996 RMK SLP146 57021 970 8/108 MDT CU DSNT CB 1ST AND 2ND QUAD
TAF: TAF COR MMMD 151950Z 1518/1618 12012KT P6SM BKN020 TX33/1520Z TN26/1610Z FM152100 06015KT 5SM RA BKN020CB TEMPO 1521/1601 VRB25KT 2SM TSRA OVC015CB FM160100 07010KT P6SM SCT020 BKN080 FM160500 00000KT P6SM SKC FM161200 12010KT 3SM BR OVC005 FM161400 12010KT P6SM BKN015
View NOTAMs / SUP AIP / TFR affecting this airport [VIEW]
Communications frequencies: [VIEW]

Runways:

RWY identifierQFULength (ft)Width (ft)SurfaceLDA (ft)
10105°10499151ASP
28285°10499151ASP
18181°7546148ASP
367546148ASP

Airport contact information

Address: Merida Mexico

Satellite view of MMMD